Details From SOCA - Cayenne Rochambeau
To SMJP - Paramaribo Johan A Pengel Intl
Flight Number -
Tags generated
Created
Modified
Stats Distance 173 nm / 321 km
Max Altitude 0 ft / 0 m
Waypoints 2
Social Downloads 3
Likes 0
Share

Download

Looking for another format? Having issues loading an existing format? Contact us
Advertisement - Login to hide

Notes

Basic altitude profile: - Ascent Rate: 500ft/min - Ascent Speed: 90kts - Cruise Altitude: 35000ft - Cruise Speed: 95kts - Descent Rate: 500ft/min - Descent Speed: 100kts Options: - Use NATs: yes - Use PACOTS: yes - Use low airways: no - Use high airways: no

Route

SOCA SMJP

ID Type Via Altitude (ft/m) Position (lat/lon) Dist (leg/tot) Name
O SOCA APT - 0 / 0 4.81981 / -52.36045 - / 0 nm Cayenne Rochambeau
O SMJP APT - 0 / 0 5.45283 / -55.18778 173 / 173 nm Paramaribo Johan A Pengel Intl

Altitude Profile

Advertisement - Login to hide

Weather


0- 5 10 15 20 25 30 35+ Temperature / °C

Clouds and Precipitation
Forecast for 2021-03-22 12:00 UTC. Updated 24 days ago

Ground ~20,000 ft ~40,000 ft Winds

SOCA

Details ICAO SOCA (CAY)
Name Cayenne-Felix Eboue Intl
Region French Guiana
Timezone America/Cayenne (UTC-3.0)
Stats Elevation 26 ft / 8 m (AMSL)
Location 4.820030° -52.361100°
Runways 1
Magnetic Variation 18.454° W

METAR

SOCA 142330Z AUTO VRB03KT 9999 OVC019 27/25 Q1010

Decode

TAF

TAF TAF SOCA 142230Z 1422/1518 CNL

Decode

Departure Runways

ID Width Length Bearing (true/mag) Surface Threshold Overrun Markings Lighting
08 148 ft / 45 m 10,489 ft / 3,197 m 65.20° / 83.65° ASPHALT 0 ft / 0 m 0 ft / 0 m PREC-APP CENTERLINE EDGE THRESHOLD MALSR TDZ REIL-OMNI
26 148 ft / 45 m 10,489 ft / 3,197 m 245.20° / 263.65° ASPHALT 0 ft / 0 m 0 ft / 0 m APP CENTERLINE EDGE THRESHOLD REIL-OMNI

SMJP

Details ICAO SMJP (PBM)
Name Johan Adolf Pengel Intl
Region Suriname
Timezone America/Paramaribo (UTC-3.0)
Stats Elevation 59 ft / 18 m (AMSL)
Location 5.452850° -55.187800°
Runways 1
Magnetic Variation 17.674° W

METAR

SMJP 142300Z VRB01KT 9999 FEW015CB SCT025 24/23 Q1010 NOSIG

Decode

TAF

TAF SMJP 142200Z 1500/1524 05004KT 9999 FEW010 SCT040 TX31/1517Z TN23/1509Z PROB40 TEMPO 1508/1511 2000 BR SCT002 FM151130 09010KT 9999 SCT012 TEMPO 1517/1522 VRB12G24KT 3000 SHRA FEW015CB BKN018

Decode

Destination Runways

ID Width Length Bearing (true/mag) Surface Threshold Overrun Markings Lighting
11 151 ft / 46 m 11,428 ft / 3,483 m 89.69° / 107.36° ASPHALT 0 ft / 0 m 230 ft / 70 m PREC-APP EDGE THRESHOLD MALSF REIL-OMNI
29 151 ft / 46 m 11,428 ft / 3,483 m 269.69° / 287.36° ASPHALT 0 ft / 0 m 197 ft / 60 m APP EDGE THRESHOLD MALSF REIL-OMNI

Approach Navaids

Runway Type Ident Frequency Range Bearing (true/mag) Slope Elevation
11 MM MM - - 89.67° / 107.34 ° - 59 ft / 18 m (AMSL)
11 LOC-ILS IZAN 109.90 MHz 18 nm / 33 km 89.67° / 107.34 ° - 59 ft / 18 m (AMSL)
11 GS IZAN 109.90 MHz 10 nm / 19 km 90.33° / 108.00 ° 3.00° 56 ft / 17 m (AMSL)

Popular Alternatives